createdAt,value
2022-11-20T00:00:48.108Z,87.84
2022-11-20T00:03:38.025Z,87.67
2022-11-20T00:06:29.454Z,87.80
2022-11-20T00:09:20.587Z,87.44
2022-11-20T00:12:10.063Z,87.31
2022-11-20T00:14:59.340Z,87.22
2022-11-20T00:17:49.141Z,87.19
2022-11-20T00:20:38.768Z,86.76
2022-11-20T00:23:28.052Z,86.15
2022-11-20T00:26:21.586Z,86.76
2022-11-20T00:29:12.065Z,86.36
2022-11-20T00:32:01.377Z,86.52
2022-11-20T00:34:50.868Z,86.39
2022-11-20T00:37:40.255Z,86.46
2022-11-20T00:40:29.685Z,86.43
2022-11-20T00:43:20.354Z,86.17
2022-11-20T00:46:12.049Z,86.04
2022-11-20T00:49:01.772Z,86.17
2022-11-20T00:51:51.067Z,86.01
2022-11-20T00:54:40.449Z,86.25
2022-11-20T00:57:29.691Z,86.21
2022-11-20T01:00:20.864Z,85.59
2022-11-20T01:03:10.263Z,85.36
2022-11-20T01:06:03.563Z,84.85
2022-11-20T01:08:55.593Z,84.71
2022-11-20T01:11:46.974Z,85.09
2022-11-20T01:14:36.275Z,84.87
2022-11-20T01:17:27.111Z,85.26
2022-11-20T01:20:16.785Z,85.28
2022-11-20T01:23:06.297Z,85.10
2022-11-20T01:25:55.627Z,84.94
2022-11-20T01:28:45.708Z,84.66
2022-11-20T01:31:37.749Z,84.99
2022-11-20T01:34:28.462Z,84.35
2022-11-20T01:37:17.988Z,84.61
2022-11-20T01:40:08.724Z,84.49
2022-11-20T01:43:22.342Z,84.45
2022-11-20T01:46:17.745Z,84.58
2022-11-20T01:49:14.016Z,84.42
2022-11-20T01:52:09.744Z,84.62
2022-11-20T01:55:06.289Z,84.52
2022-11-20T01:57:55.849Z,84.65
2022-11-20T02:00:45.905Z,84.47
2022-11-20T02:03:35.435Z,84.56
2022-11-20T02:06:30.403Z,84.26
2022-11-20T02:09:21.426Z,84.35
2022-11-20T02:12:31.282Z,84.26
2022-11-20T02:15:19.708Z,83.98
2022-11-20T02:18:10.405Z,83.83
2022-11-20T02:21:08.075Z,84.10
2022-11-20T02:24:09.128Z,84.08
2022-11-20T02:27:04.419Z,84.12
2022-11-20T02:29:57.480Z,83.75
2022-11-20T02:32:47.086Z,83.76
2022-11-20T02:35:48.647Z,83.43
2022-11-20T02:38:38.151Z,83.31
2022-11-20T02:41:39.513Z,83.02
2022-11-20T02:44:28.769Z,82.14
2022-11-20T02:47:18.171Z,81.81
2022-11-20T02:50:08.487Z,81.84
2022-11-20T02:52:57.776Z,81.12
2022-11-20T02:55:47.060Z,81.32
2022-11-20T02:58:37.787Z,80.86
2022-11-20T03:01:27.249Z,81.22
2022-11-20T03:04:16.731Z,81.30
2022-11-20T03:07:06.321Z,81.43
2022-11-20T03:09:55.642Z,81.60
2022-11-20T03:12:44.900Z,81.38
2022-11-20T03:15:35.675Z,81.42
2022-11-20T03:18:24.998Z,81.50
2022-11-20T03:21:15.845Z,80.68
2022-11-20T03:24:05.936Z,81.03
2022-11-20T03:26:55.233Z,80.69
2022-11-20T03:29:44.566Z,80.18
2022-11-20T03:32:35.490Z,80.23
2022-11-20T03:35:24.860Z,80.25
2022-11-20T03:38:14.116Z,80.31
2022-11-20T03:41:05.396Z,80.38
2022-11-20T03:43:56.935Z,80.16
2022-11-20T03:46:46.206Z,79.92
2022-11-20T03:49:37.002Z,79.80
2022-11-20T03:52:26.365Z,79.58
2022-11-20T03:55:15.891Z,79.92
2022-11-20T03:58:05.217Z,79.47
2022-11-20T04:00:54.405Z,79.27
2022-11-20T04:03:45.247Z,79.51
2022-11-20T04:06:40.133Z,79.03
2022-11-20T04:09:29.583Z,78.97
2022-11-20T04:12:18.813Z,78.73
2022-11-20T04:15:09.099Z,78.43
2022-11-20T04:17:58.360Z,78.17
2022-11-20T04:20:47.682Z,77.83
2022-11-20T04:23:38.601Z,77.76
2022-11-20T04:26:29.793Z,77.78
2022-11-20T04:29:19.580Z,78.28
2022-11-20T04:32:09.032Z,78.46
2022-11-20T04:34:58.628Z,78.99
2022-11-20T04:37:48.383Z,79.02
2022-11-20T04:40:39.277Z,79.48
2022-11-20T04:43:29.762Z,79.25
2022-11-20T04:46:20.081Z,79.43
2022-11-20T04:49:10.639Z,79.99
2022-11-20T04:52:00.375Z,79.95
2022-11-20T04:54:49.635Z,79.34
2022-11-20T04:57:40.307Z,80.27
2022-11-20T05:00:29.635Z,79.81
2022-11-20T05:03:19.006Z,80.20
2022-11-20T05:06:10.252Z,79.78
2022-11-20T05:08:59.572Z,80.16
2022-11-20T05:11:51.452Z,79.82
2022-11-20T05:14:42.458Z,79.70
2022-11-20T05:17:31.762Z,79.89
2022-11-20T05:20:22.057Z,80.08
2022-11-20T05:23:11.309Z,79.75
2022-11-20T05:26:01.575Z,80.01
2022-11-20T05:28:50.985Z,79.62
2022-11-20T05:31:42.979Z,79.61
2022-11-20T05:34:32.289Z,79.40
2022-11-20T05:37:21.681Z,79.54
2022-11-20T05:40:13.477Z,79.49
2022-11-20T05:43:03.128Z,78.92
2022-11-20T05:45:56.495Z,78.76
2022-11-20T05:48:48.387Z,78.73
2022-11-20T05:51:37.604Z,78.62
2022-11-20T05:54:27.409Z,78.80
2022-11-20T05:57:16.792Z,78.80
2022-11-20T06:00:07.434Z,79.42
2022-11-20T06:02:56.896Z,79.59
2022-11-20T06:05:47.742Z,79.65
2022-11-20T06:08:37.573Z,79.59
2022-11-20T06:11:27.662Z,79.59
2022-11-20T06:14:17.104Z,79.49
2022-11-20T06:17:06.515Z,79.46
2022-11-20T06:19:56.045Z,78.94
2022-11-20T06:22:46.832Z,78.76
2022-11-20T06:25:39.124Z,78.60
2022-11-20T06:28:28.449Z,78.54
2022-11-20T06:31:20.246Z,78.39
2022-11-20T06:34:10.574Z,78.51
2022-11-20T06:36:59.907Z,78.24
2022-11-20T06:39:50.558Z,78.18
2022-11-20T06:42:39.824Z,77.99
2022-11-20T06:45:29.304Z,78.10
2022-11-20T06:48:18.932Z,78.09
2022-11-20T06:51:09.770Z,77.98
2022-11-20T06:53:59.055Z,78.12
2022-11-20T06:56:51.140Z,78.22
2022-11-20T06:59:40.559Z,77.95
2022-11-20T07:02:29.830Z,77.77
2022-11-20T07:05:19.527Z,77.90
2022-11-20T07:08:09.654Z,77.56
2022-11-20T07:11:01.109Z,77.91
2022-11-20T07:13:52.136Z,77.86
2022-11-20T07:16:41.501Z,77.78
2022-11-20T07:19:30.774Z,77.75
2022-11-20T07:22:22.686Z,77.68
2022-11-20T07:25:13.532Z,77.55
2022-11-20T07:28:03.235Z,77.41
2022-11-20T07:30:55.264Z,77.11
2022-11-20T07:33:45.142Z,76.74
2022-11-20T07:36:34.474Z,76.65
2022-11-20T07:39:23.835Z,76.55
2022-11-20T07:42:13.997Z,76.37
2022-11-20T07:45:03.312Z,76.13
2022-11-20T07:47:54.452Z,76.11
2022-11-20T07:50:43.855Z,75.71
2022-11-20T07:53:33.152Z,75.29
2022-11-20T07:56:22.664Z,75.01
2022-11-20T07:59:12.894Z,74.59
2022-11-20T08:02:02.171Z,74.27
2022-11-20T08:04:52.930Z,74.19
2022-11-20T08:07:44.099Z,74.53
2022-11-20T08:10:33.484Z,74.79
2022-11-20T08:13:39.837Z,75.08
2022-11-20T08:16:29.126Z,74.94
2022-11-20T08:19:21.009Z,75.07
2022-11-20T08:22:12.061Z,74.93
2022-11-20T08:25:01.535Z,75.42
2022-11-20T08:27:50.776Z,75.14
2022-11-20T08:30:40.417Z,75.11
2022-11-20T08:33:30.202Z,75.69
2022-11-20T08:36:22.720Z,74.91
2022-11-20T08:39:16.413Z,74.19
2022-11-20T08:42:09.675Z,74.48
2022-11-20T08:44:59.239Z,73.88
2022-11-20T08:47:49.004Z,73.93
2022-11-20T08:50:38.522Z,73.97
2022-11-20T08:53:27.925Z,73.86
2022-11-20T08:56:19.388Z,73.69
2022-11-20T08:59:44.056Z,73.38
2022-11-20T09:02:18.072Z,73.46
2022-11-20T09:05:08.612Z,73.36
2022-11-20T09:07:59.320Z,73.25
2022-11-20T09:10:53.169Z,73.47
2022-11-20T09:13:43.829Z,73.45
2022-11-20T09:16:33.146Z,73.65
2022-11-20T09:19:37.745Z,73.50
2022-11-20T09:22:27.120Z,73.49
2022-11-20T09:25:16.830Z,73.35
2022-11-20T09:28:06.350Z,73.60
2022-11-20T09:30:57.034Z,73.53
2022-11-20T09:33:46.291Z,73.50
2022-11-20T09:36:35.600Z,73.36
2022-11-20T09:39:24.973Z,73.65
2022-11-20T09:42:32.942Z,73.12
2022-11-20T09:45:33.911Z,73.45
2022-11-20T09:48:50.811Z,73.27
2022-11-20T09:51:51.232Z,73.48
2022-11-20T09:54:42.806Z,73.38
2022-11-20T09:57:38.631Z,73.53
2022-11-20T10:00:28.953Z,73.54
2022-11-20T10:03:28.966Z,73.50
2022-11-20T10:06:24.306Z,73.25
2022-11-20T10:09:27.968Z,73.17
2022-11-20T10:12:25.323Z,72.57
2022-11-20T10:15:31.594Z,72.11
2022-11-20T10:18:38.596Z,72.40
2022-11-20T10:21:42.363Z,72.64
2022-11-20T10:24:45.743Z,72.84
2022-11-20T10:27:49.194Z,72.81
2022-11-20T10:30:43.834Z,72.48
2022-11-20T10:33:57.094Z,72.37
2022-11-20T10:36:55.208Z,72.19
2022-11-20T10:39:53.005Z,71.72
2022-11-20T10:42:52.013Z,72.35
2022-11-20T10:45:55.258Z,72.50
2022-11-20T10:48:46.554Z,72.71
2022-11-20T10:51:47.799Z,72.66
2022-11-20T10:54:49.796Z,73.32
2022-11-20T10:57:56.836Z,73.42
2022-11-20T11:00:46.177Z,73.91
2022-11-20T11:03:36.029Z,74.11
2022-11-20T11:06:34.309Z,74.01
2022-11-20T11:09:37.917Z,74.26
2022-11-20T11:12:31.104Z,73.98
2022-11-20T11:15:30.434Z,73.44
2022-11-20T11:18:31.259Z,72.80
2022-11-20T11:21:27.156Z,72.03
2022-11-20T11:24:41.728Z,71.48
2022-11-20T11:27:33.261Z,70.16
2022-11-20T11:30:23.489Z,69.94
2022-11-20T11:33:20.497Z,66.53
2022-11-20T11:36:25.717Z,64.75
2022-11-20T11:39:20.987Z,60.22
2022-11-20T11:42:18.899Z,59.83
2022-11-20T11:45:18.271Z,57.20
2022-11-20T11:48:11.833Z,55.92
2022-11-20T11:51:01.142Z,55.52
2022-11-20T11:53:50.467Z,56.82
2022-11-20T11:56:40.059Z,58.84
2022-11-20T11:59:40.783Z,61.79
2022-11-20T12:02:40.618Z,63.41
2022-11-20T12:05:34.502Z,63.65
2022-11-20T12:08:29.608Z,62.97
2022-11-20T12:11:26.479Z,62.83
2022-11-20T12:14:25.026Z,62.53
2022-11-20T12:17:16.511Z,62.55
2022-11-20T12:20:15.477Z,62.21
2022-11-20T12:23:16.687Z,61.65
2022-11-20T12:26:20.447Z,60.66
2022-11-20T12:29:20.843Z,60.27
2022-11-20T12:32:42.311Z,59.86
2022-11-20T12:35:50.996Z,59.58
2022-11-20T12:39:06.329Z,59.31
2022-11-20T12:42:37.646Z,58.78
2022-11-20T12:46:15.889Z,58.74
2022-11-20T12:49:32.088Z,58.61
2022-11-20T12:52:41.437Z,58.83
2022-11-20T12:55:50.461Z,58.92
2022-11-20T12:58:48.890Z,59.02
2022-11-20T13:01:50.716Z,59.04
2022-11-20T13:05:27.172Z,58.92
2022-11-20T13:08:25.155Z,58.25
2022-11-20T13:11:21.124Z,56.74
2022-11-20T13:14:29.030Z,57.27
2022-11-20T13:17:26.986Z,57.17
2022-11-20T13:20:19.306Z,58.36
2022-11-20T13:23:08.588Z,58.82
2022-11-20T13:26:19.865Z,59.74
2022-11-20T13:29:18.622Z,61.31
2022-11-20T13:32:15.991Z,61.84
2022-11-20T13:35:07.106Z,61.65
2022-11-20T13:38:09.144Z,61.17
2022-11-20T13:41:21.141Z,60.71
2022-11-20T13:44:26.206Z,60.64
2022-11-20T13:47:25.072Z,60.44
2022-11-20T13:50:17.433Z,59.89
2022-11-20T13:53:24.931Z,59.49
2022-11-20T13:56:26.721Z,59.84
2022-11-20T13:59:39.289Z,59.26
2022-11-20T14:02:32.003Z,59.50
2022-11-20T14:05:25.454Z,58.95
2022-11-20T14:08:23.648Z,58.71
2022-11-20T14:11:19.533Z,57.68
2022-11-20T14:14:20.686Z,57.27
2022-11-20T14:17:19.143Z,56.94
2022-11-20T14:20:15.233Z,57.30
2022-11-20T14:23:06.212Z,57.48
2022-11-20T14:25:55.840Z,57.74
2022-11-20T14:28:45.153Z,57.78
2022-11-20T14:31:35.923Z,58.61
2022-11-20T14:34:28.255Z,59.02
2022-11-20T14:37:25.041Z,59.53
2022-11-20T14:40:28.466Z,60.22
2022-11-20T14:43:26.114Z,60.83
2022-11-20T14:46:16.668Z,61.92
2022-11-20T14:49:07.699Z,62.24
2022-11-20T14:52:04.687Z,62.90
2022-11-20T14:54:56.328Z,62.51
2022-11-20T14:57:45.644Z,63.41
2022-11-20T15:00:38.200Z,63.45
2022-11-20T15:03:35.165Z,64.24
2022-11-20T15:06:29.012Z,64.33
2022-11-20T15:09:18.582Z,65.13
2022-11-20T15:12:20.622Z,66.00
2022-11-20T15:15:17.128Z,66.03
2022-11-20T15:18:06.881Z,66.11
2022-11-20T15:20:58.834Z,65.99
2022-11-20T15:23:49.813Z,66.68
2022-11-20T15:26:40.314Z,66.85
2022-11-20T15:29:30.214Z,67.03
2022-11-20T15:32:19.537Z,67.07
2022-11-20T15:35:10.783Z,67.15
2022-11-20T15:38:00.072Z,67.06
2022-11-20T15:40:50.911Z,67.40
2022-11-20T15:43:40.273Z,67.30
2022-11-20T15:46:33.934Z,67.23
2022-11-20T15:49:24.735Z,67.65
2022-11-20T15:52:15.368Z,67.26
2022-11-20T15:55:09.829Z,67.19
2022-11-20T15:58:00.733Z,67.35
2022-11-20T16:00:51.201Z,67.42
2022-11-20T16:03:40.864Z,67.57
2022-11-20T16:06:30.323Z,67.67
2022-11-20T16:09:19.705Z,67.74
2022-11-20T16:12:31.150Z,68.10
2022-11-20T16:15:39.228Z,68.50
2022-11-20T16:18:28.653Z,68.56
2022-11-20T16:21:18.047Z,69.26
2022-11-20T16:24:09.430Z,68.82
2022-11-20T16:26:59.122Z,69.65
2022-11-20T16:29:48.518Z,69.66
2022-11-20T16:32:39.766Z,69.98
2022-11-20T16:35:30.145Z,69.66
2022-11-20T16:38:19.513Z,69.61
2022-11-20T16:41:14.556Z,70.36
2022-11-20T16:44:09.497Z,70.53
2022-11-20T16:46:58.889Z,70.18
2022-11-20T16:49:49.628Z,70.43
2022-11-20T16:52:39.314Z,70.73
2022-11-20T16:55:28.684Z,71.11
2022-11-20T16:58:18.488Z,71.35
2022-11-20T17:01:10.807Z,71.62
2022-11-20T17:04:02.227Z,71.63
2022-11-20T17:06:53.064Z,72.29
2022-11-20T17:09:43.051Z,72.12
2022-11-20T17:12:32.306Z,72.50
2022-11-20T17:15:21.573Z,72.04
2022-11-20T17:18:10.913Z,72.24
2022-11-20T17:21:04.662Z,72.36
2022-11-20T17:23:55.396Z,72.35
2022-11-20T17:26:46.409Z,71.91
2022-11-20T17:29:41.791Z,72.67
2022-11-20T17:32:31.455Z,72.71
2022-11-20T17:35:20.829Z,72.83
2022-11-20T17:38:10.292Z,72.84
2022-11-20T17:41:06.451Z,73.04
2022-11-20T17:43:57.733Z,72.77
2022-11-20T17:46:47.052Z,72.48
2022-11-20T17:49:36.376Z,72.77
2022-11-20T17:52:25.682Z,72.27
2022-11-20T17:55:15.219Z,72.70
2022-11-20T17:58:06.672Z,72.46
2022-11-20T18:00:56.103Z,72.72
2022-11-20T18:03:45.615Z,72.47
2022-11-20T18:06:35.269Z,72.08
2022-11-20T18:09:24.825Z,72.01
2022-11-20T18:12:14.126Z,72.04
2022-11-20T18:15:05.323Z,71.94
2022-11-20T18:17:54.814Z,72.07
2022-11-20T18:20:44.108Z,72.11
2022-11-20T18:23:35.606Z,72.30
2022-11-20T18:26:25.926Z,72.99
2022-11-20T18:29:17.605Z,73.45
2022-11-20T18:32:08.383Z,73.86
2022-11-20T18:34:57.732Z,73.87
2022-11-20T18:37:47.048Z,73.57
2022-11-20T18:40:36.987Z,73.70
2022-11-20T18:43:43.798Z,74.12
2022-11-20T18:46:33.028Z,74.19
2022-11-20T18:49:23.697Z,74.58
2022-11-20T18:52:14.233Z,74.92
2022-11-20T18:55:05.098Z,74.37
2022-11-20T18:57:55.390Z,74.68
2022-11-20T19:00:44.745Z,74.76
2022-11-20T19:03:34.227Z,74.74
2022-11-20T19:06:25.729Z,74.73
2022-11-20T19:09:15.350Z,74.69
2022-11-20T19:12:04.812Z,74.32
2022-11-20T19:14:54.120Z,74.22
2022-11-20T19:17:48.907Z,74.05
2022-11-20T19:20:38.355Z,73.54
2022-11-20T19:23:29.093Z,73.43
2022-11-20T19:26:19.269Z,73.25
2022-11-20T19:29:09.047Z,72.75
2022-11-20T19:31:58.937Z,72.97
2022-11-20T19:34:48.185Z,72.81
2022-11-20T19:37:37.468Z,72.84
2022-11-20T19:40:28.156Z,72.95
2022-11-20T19:43:17.657Z,72.93
2022-11-20T19:46:07.283Z,72.74
2022-11-20T19:48:57.541Z,72.55
2022-11-20T19:51:49.270Z,72.44
2022-11-20T19:54:38.622Z,72.45
2022-11-20T19:57:29.687Z,72.22
2022-11-20T20:00:28.096Z,72.06
2022-11-20T20:03:20.522Z,72.29
2022-11-20T20:06:13.904Z,72.02
2022-11-20T20:09:05.989Z,72.09
2022-11-20T20:11:55.529Z,72.40
2022-11-20T20:14:46.320Z,72.67
2022-11-20T20:17:35.937Z,73.50
2022-11-20T20:20:26.019Z,73.84
2022-11-20T20:23:15.590Z,74.03
2022-11-20T20:26:06.423Z,73.66
2022-11-20T20:28:56.362Z,73.56
2022-11-20T20:31:47.724Z,73.75
2022-11-20T20:34:37.544Z,74.10
2022-11-20T20:37:27.288Z,73.96
2022-11-20T20:40:19.080Z,73.41
2022-11-20T20:43:08.347Z,74.17
2022-11-20T20:45:57.859Z,73.79
2022-11-20T20:48:54.040Z,75.69
2022-11-20T20:51:43.954Z,75.41
2022-11-20T20:54:34.643Z,76.04
2022-11-20T20:57:25.443Z,75.27
2022-11-20T21:00:15.769Z,76.28
2022-11-20T21:03:05.124Z,75.83
2022-11-20T21:05:58.811Z,75.94
2022-11-20T21:08:48.293Z,75.55
2022-11-20T21:11:39.779Z,75.56
2022-11-20T21:14:29.285Z,75.80
2022-11-20T21:17:18.670Z,75.92
2022-11-20T21:20:30.211Z,76.24
2022-11-20T21:23:21.359Z,76.39
2022-11-20T21:26:11.482Z,76.39
2022-11-20T21:29:00.890Z,76.06
2022-11-20T21:31:50.696Z,76.10
2022-11-20T21:34:40.096Z,76.11
2022-11-20T21:37:29.828Z,75.94
2022-11-20T21:40:20.738Z,75.51
2022-11-20T21:43:10.147Z,75.77
2022-11-20T21:46:04.427Z,75.87
2022-11-20T21:48:53.987Z,75.80
2022-11-20T21:51:43.468Z,75.96
2022-11-20T21:54:35.808Z,76.28
2022-11-20T21:57:26.797Z,76.06
2022-11-20T22:00:16.996Z,75.69
2022-11-20T22:03:06.494Z,75.77
2022-11-20T22:05:57.609Z,76.08
2022-11-20T22:08:47.170Z,76.08
2022-11-20T22:11:36.582Z,75.99
2022-11-20T22:14:27.539Z,76.20
2022-11-20T22:17:17.540Z,76.09
2022-11-20T22:20:09.091Z,76.00
2022-11-20T22:22:58.444Z,75.98
2022-11-20T22:25:47.821Z,76.40
2022-11-20T22:28:38.371Z,76.55
2022-11-20T22:31:31.410Z,76.43
2022-11-20T22:34:21.357Z,76.90
2022-11-20T22:37:11.011Z,76.36
2022-11-20T22:40:00.594Z,76.26
2022-11-20T22:42:49.976Z,76.45
2022-11-20T22:45:39.249Z,76.48
2022-11-20T22:48:29.949Z,76.38
2022-11-20T22:51:21.552Z,75.91
2022-11-20T22:54:13.367Z,75.95
2022-11-20T22:57:02.868Z,75.48
2022-11-20T22:59:52.138Z,75.33
2022-11-20T23:02:46.695Z,75.45
2022-11-20T23:05:37.309Z,75.52
2022-11-20T23:08:26.699Z,75.62
2022-11-20T23:11:18.695Z,75.43
2022-11-20T23:14:12.762Z,75.39
2022-11-20T23:17:02.097Z,75.41
2022-11-20T23:19:51.443Z,74.94
2022-11-20T23:22:42.188Z,74.61
2022-11-20T23:25:31.522Z,74.22
2022-11-20T23:28:20.744Z,73.37
2022-11-20T23:31:12.707Z,73.82
2022-11-20T23:34:02.409Z,72.95
2022-11-20T23:36:51.986Z,71.98
2022-11-20T23:39:42.789Z,72.06
2022-11-20T23:42:32.171Z,72.10
2022-11-20T23:45:21.475Z,72.01
2022-11-20T23:48:10.834Z,72.31
2022-11-20T23:51:00.495Z,72.59
2022-11-20T23:53:49.815Z,72.71
2022-11-20T23:56:40.543Z,73.01
2022-11-20T23:59:29.809Z,72.92
